createdAt,value
2022-07-28T00:01:48.745Z,7.50
2022-07-28T00:04:18.686Z,8.73
2022-07-28T00:06:47.860Z,8.45
2022-07-28T00:09:16.221Z,8.20
2022-07-28T00:11:54.162Z,8.82
2022-07-28T00:14:23.649Z,8.63
2022-07-28T00:16:52.669Z,8.98
2022-07-28T00:19:22.428Z,8.15
2022-07-28T00:21:51.319Z,9.55
2022-07-28T00:24:19.826Z,9.20
2022-07-28T00:26:48.548Z,8.75
2022-07-28T00:29:17.122Z,8.45
2022-07-28T00:31:46.212Z,8.57
2022-07-28T00:34:15.262Z,8.70
2022-07-28T00:36:45.538Z,8.88
2022-07-28T00:39:14.024Z,8.95
2022-07-28T00:41:42.898Z,8.73
2022-07-28T00:44:12.545Z,8.70
2022-07-28T00:46:42.523Z,9.80
2022-07-28T00:49:11.386Z,9.48
2022-07-28T00:51:41.406Z,9.35
2022-07-28T00:54:11.930Z,10.40
2022-07-28T00:56:40.602Z,9.70
2022-07-28T00:59:11.934Z,10.00
2022-07-28T01:01:40.585Z,9.60
2022-07-28T01:04:09.490Z,10.43
2022-07-28T01:06:56.026Z,9.55
2022-07-28T01:09:41.894Z,10.02
2022-07-28T01:12:19.554Z,10.30
2022-07-28T01:14:51.197Z,10.57
2022-07-28T01:17:26.978Z,11.48
2022-07-28T01:20:08.633Z,11.40
2022-07-28T01:22:43.025Z,12.95
2022-07-28T01:25:22.805Z,13.15
2022-07-28T01:28:07.913Z,13.30
2022-07-28T01:30:42.565Z,11.55
2022-07-28T01:33:16.695Z,11.18
2022-07-28T01:35:48.613Z,11.48
2022-07-28T01:38:18.177Z,13.20
2022-07-28T01:40:48.474Z,12.20
2022-07-28T01:43:23.721Z,11.90
2022-07-28T01:45:56.820Z,13.07
2022-07-28T01:48:26.160Z,13.02
2022-07-28T01:50:57.616Z,12.73
2022-07-28T01:53:27.274Z,12.85
2022-07-28T01:55:57.286Z,12.60
2022-07-28T01:58:27.084Z,12.90
2022-07-28T02:00:59.196Z,13.35
2022-07-28T02:03:31.317Z,14.05
2022-07-28T02:06:03.692Z,12.15
2022-07-28T02:08:34.739Z,12.98
2022-07-28T02:11:20.983Z,12.05
2022-07-28T02:13:51.571Z,12.80
2022-07-28T02:16:26.213Z,14.13
2022-07-28T02:18:58.226Z,13.52
2022-07-28T02:21:28.623Z,13.32
2022-07-28T02:23:57.766Z,14.98
2022-07-28T02:26:30.169Z,12.77
2022-07-28T02:29:01.267Z,15.52
2022-07-28T02:31:36.054Z,13.70
2022-07-28T02:34:11.892Z,11.70
2022-07-28T02:36:48.462Z,31.75
2022-07-28T02:39:23.252Z,16.58
2022-07-28T02:42:00.081Z,16.58
2022-07-28T02:44:36.327Z,13.77
2022-07-28T02:47:10.950Z,14.18
2022-07-28T02:49:41.543Z,15.48
2022-07-28T02:52:12.696Z,14.80
2022-07-28T02:54:42.840Z,14.00
2022-07-28T02:57:13.703Z,17.23
2022-07-28T02:59:43.887Z,14.30
2022-07-28T03:02:14.497Z,14.00
2022-07-28T03:05:00.762Z,16.23
2022-07-28T03:07:33.593Z,15.10
2022-07-28T03:10:02.098Z,15.43
2022-07-28T03:12:32.421Z,15.63
2022-07-28T03:15:00.850Z,16.33
2022-07-28T03:17:30.870Z,16.05
2022-07-28T03:19:59.953Z,15.10
2022-07-28T03:22:28.389Z,19.70
2022-07-28T03:24:59.054Z,14.80
2022-07-28T03:27:31.972Z,19.35
2022-07-28T03:30:04.325Z,16.40
2022-07-28T03:32:38.136Z,20.80
2022-07-28T03:35:08.069Z,17.98
2022-07-28T03:37:42.565Z,15.40
2022-07-28T03:40:15.130Z,17.77
2022-07-28T03:42:47.618Z,18.83
2022-07-28T03:45:17.216Z,16.20
2022-07-28T03:47:53.037Z,16.92
2022-07-28T03:50:24.153Z,23.55
2022-07-28T03:52:53.118Z,19.13
2022-07-28T03:55:21.922Z,17.33
2022-07-28T03:57:50.542Z,18.75
2022-07-28T04:00:20.604Z,18.90
2022-07-28T04:02:49.482Z,17.65
2022-07-28T04:05:21.323Z,17.88
2022-07-28T04:07:49.752Z,17.92
2022-07-28T04:10:19.199Z,16.45
2022-07-28T04:12:49.559Z,17.52
2022-07-28T04:15:18.514Z,20.75
2022-07-28T04:17:48.608Z,18.02
2022-07-28T04:20:19.892Z,17.00
2022-07-28T04:22:49.007Z,18.02
2022-07-28T04:25:20.045Z,18.50
2022-07-28T04:27:48.618Z,18.17
2022-07-28T04:30:18.625Z,16.75
2022-07-28T04:32:49.095Z,20.40
2022-07-28T04:35:20.122Z,18.98
2022-07-28T04:37:49.537Z,20.15
2022-07-28T04:40:17.955Z,19.02
2022-07-28T04:42:46.914Z,21.50
2022-07-28T04:45:15.381Z,19.98
2022-07-28T04:47:44.401Z,20.50
2022-07-28T04:50:16.073Z,17.95
2022-07-28T04:52:49.338Z,18.83
2022-07-28T04:57:46.473Z,19.38
2022-07-28T05:00:16.059Z,18.13
2022-07-28T05:02:48.429Z,19.00
2022-07-28T05:05:17.415Z,20.95
2022-07-28T05:07:46.278Z,19.27
2022-07-28T05:10:16.056Z,19.50
2022-07-28T05:12:45.581Z,20.02
2022-07-28T05:15:13.994Z,18.65
2022-07-28T05:17:42.602Z,20.77
2022-07-28T05:20:13.628Z,17.67
2022-07-28T05:22:43.769Z,19.92
2022-07-28T05:25:18.471Z,18.52
2022-07-28T05:27:48.176Z,18.65
2022-07-28T05:30:17.805Z,20.83
2022-07-28T05:32:47.091Z,17.90
2022-07-28T05:35:15.700Z,17.52
2022-07-28T05:37:44.657Z,18.27
2022-07-28T05:40:14.950Z,17.50
2022-07-28T05:42:47.589Z,18.20
2022-07-28T05:45:17.762Z,18.63
2022-07-28T05:47:48.502Z,20.08
2022-07-28T05:50:18.343Z,16.65
2022-07-28T05:52:47.581Z,17.80
2022-07-28T05:55:17.755Z,17.42
2022-07-28T05:57:47.906Z,16.98
2022-07-28T06:00:18.418Z,17.50
2022-07-28T06:02:49.291Z,16.67
2022-07-28T06:05:21.615Z,17.13
2022-07-28T06:07:51.766Z,15.98
2022-07-28T06:10:22.345Z,17.15
2022-07-28T06:12:53.333Z,18.63
2022-07-28T06:15:23.446Z,18.45
2022-07-28T06:17:53.312Z,20.20
2022-07-28T06:20:23.853Z,18.02
2022-07-28T06:22:54.388Z,19.98
2022-07-28T06:25:25.272Z,15.43
2022-07-28T06:27:56.705Z,17.65
2022-07-28T06:30:25.820Z,16.77
2022-07-28T06:32:54.600Z,16.40
2022-07-28T06:35:23.888Z,17.67
2022-07-28T06:37:53.834Z,15.90
2022-07-28T06:40:23.873Z,16.35
2022-07-28T06:42:52.555Z,14.68
2022-07-28T06:45:23.684Z,14.73
2022-07-28T06:47:53.656Z,14.88
2022-07-28T06:50:26.224Z,14.93
2022-07-28T06:52:56.791Z,16.05
2022-07-28T06:55:25.352Z,15.57
2022-07-28T06:57:54.647Z,15.90
2022-07-28T07:00:24.554Z,19.15
2022-07-28T07:03:15.794Z,16.98
2022-07-28T07:05:44.594Z,15.45
2022-07-28T07:10:43.122Z,16.08
2022-07-28T07:13:11.898Z,14.60
2022-07-28T07:15:44.294Z,15.48
2022-07-28T07:18:12.776Z,14.30
2022-07-28T07:20:41.359Z,13.43
2022-07-28T07:23:09.737Z,13.63
2022-07-28T07:25:38.308Z,14.50
2022-07-28T07:28:06.817Z,13.80
2022-07-28T07:30:35.172Z,14.25
2022-07-28T07:33:07.055Z,14.82
2022-07-28T07:35:37.932Z,14.48
2022-07-28T07:38:07.001Z,13.85
2022-07-28T07:40:35.588Z,20.50
2022-07-28T07:43:04.622Z,17.60
2022-07-28T07:45:34.334Z,14.07
2022-07-28T07:48:04.560Z,13.10
2022-07-28T07:50:33.250Z,14.25
2022-07-28T07:53:01.612Z,13.00
2022-07-28T07:55:34.465Z,13.82
2022-07-28T07:58:06.835Z,13.98
2022-07-28T08:00:35.938Z,13.38
2022-07-28T08:03:11.009Z,13.75
2022-07-28T08:05:40.627Z,13.70
2022-07-28T08:08:09.517Z,13.10
2022-07-28T08:10:40.078Z,14.75
2022-07-28T08:15:37.486Z,16.83
2022-07-28T08:18:07.514Z,14.88
2022-07-28T08:20:36.061Z,13.15
2022-07-28T08:23:06.350Z,13.27
2022-07-28T08:25:37.003Z,13.73
2022-07-28T08:28:06.238Z,14.30
2022-07-28T08:30:34.609Z,17.80
2022-07-28T08:33:03.453Z,16.17
2022-07-28T08:35:35.141Z,14.23
2022-07-28T08:38:07.576Z,13.88
2022-07-28T08:40:39.225Z,15.52
2022-07-28T08:43:16.589Z,14.40
2022-07-28T08:45:48.918Z,24.95
2022-07-28T08:48:19.322Z,12.98
2022-07-28T08:50:50.862Z,15.23
2022-07-28T08:53:21.603Z,13.40
2022-07-28T08:55:50.349Z,13.55
2022-07-28T08:58:19.029Z,12.40
2022-07-28T09:00:48.316Z,12.85
2022-07-28T09:03:18.856Z,11.55
2022-07-28T09:05:50.311Z,11.88
2022-07-28T09:08:19.490Z,11.18
2022-07-28T09:10:48.323Z,11.93
2022-07-28T09:13:17.909Z,12.00
2022-07-28T09:15:47.183Z,11.45
2022-07-28T09:18:16.155Z,12.75
2022-07-28T09:20:45.725Z,11.98
2022-07-28T09:23:42.613Z,14.93
2022-07-28T09:26:11.045Z,11.57
2022-07-28T09:28:51.769Z,12.77
2022-07-28T09:31:22.045Z,13.85
2022-07-28T09:34:00.415Z,11.95
2022-07-28T09:36:29.795Z,11.63
2022-07-28T09:38:59.914Z,12.55
2022-07-28T09:41:28.368Z,11.43
2022-07-28T09:43:56.852Z,11.13
2022-07-28T09:46:29.496Z,13.80
2022-07-28T09:49:00.213Z,9.88
2022-07-28T09:51:31.675Z,11.70
2022-07-28T09:54:10.925Z,10.88
2022-07-28T09:56:41.783Z,9.57
2022-07-28T09:59:10.771Z,9.80
2022-07-28T10:01:55.617Z,10.30
2022-07-28T10:04:34.586Z,11.05
2022-07-28T10:07:10.070Z,10.55
2022-07-28T10:09:40.957Z,9.82
2022-07-28T10:12:16.500Z,9.60
2022-07-28T10:14:46.270Z,9.90
2022-07-28T10:17:29.420Z,11.60
2022-07-28T10:19:59.197Z,9.27
2022-07-28T10:22:33.018Z,8.98
2022-07-28T10:25:09.699Z,8.50
2022-07-28T10:27:43.023Z,8.52
2022-07-28T10:30:13.338Z,9.50
2022-07-28T10:32:44.904Z,8.65
2022-07-28T10:35:14.775Z,9.50
2022-07-28T10:37:51.014Z,8.68
2022-07-28T10:40:27.192Z,8.50
2022-07-28T10:42:56.742Z,10.55
2022-07-28T10:45:42.025Z,10.13
2022-07-28T10:48:14.380Z,8.63
2022-07-28T10:50:43.286Z,8.40
2022-07-28T10:53:18.948Z,8.70
2022-07-28T10:55:56.013Z,8.50
2022-07-28T10:58:36.062Z,8.88
2022-07-28T11:01:06.307Z,8.65
2022-07-28T11:03:42.542Z,8.27
2022-07-28T11:06:29.492Z,8.10
2022-07-28T11:08:59.666Z,7.65
2022-07-28T11:11:49.951Z,8.70
2022-07-28T11:14:37.607Z,8.73
2022-07-28T11:17:19.864Z,9.82
2022-07-28T11:22:46.331Z,8.60
2022-07-28T11:25:18.869Z,8.70
2022-07-28T11:28:06.981Z,8.13
2022-07-28T11:30:55.635Z,7.78
2022-07-28T11:33:27.363Z,7.85
2022-07-28T11:36:02.450Z,8.48
2022-07-28T11:38:30.985Z,7.75
2022-07-28T11:40:59.741Z,8.05
2022-07-28T11:43:37.618Z,7.88
2022-07-28T11:46:24.129Z,9.05
2022-07-28T11:49:19.618Z,8.90
2022-07-28T11:52:16.974Z,7.88
2022-07-28T11:54:51.807Z,8.52
2022-07-28T11:57:24.225Z,9.52
2022-07-28T11:59:57.196Z,7.38
2022-07-28T12:02:28.713Z,7.85
2022-07-28T12:05:03.675Z,7.40
2022-07-28T12:07:38.762Z,7.45
2022-07-28T12:13:16.754Z,7.47
2022-07-28T12:15:53.006Z,7.15
2022-07-28T12:18:21.932Z,8.07
2022-07-28T12:20:54.730Z,7.65
2022-07-28T12:23:39.178Z,7.55
2022-07-28T12:29:01.408Z,8.13
2022-07-28T12:31:33.485Z,8.20
2022-07-28T12:34:02.928Z,8.07
2022-07-28T12:36:31.485Z,8.63
2022-07-28T12:39:01.309Z,7.50
2022-07-28T12:41:34.617Z,7.55
2022-07-28T12:44:06.301Z,7.85
2022-07-28T12:46:36.701Z,8.68
2022-07-28T12:49:05.305Z,8.10
2022-07-28T12:51:35.694Z,7.00
2022-07-28T12:56:33.122Z,10.02
2022-07-28T12:59:06.558Z,8.38
2022-07-28T13:01:54.066Z,8.52
2022-07-28T13:04:41.814Z,8.43
2022-07-28T13:07:13.251Z,8.77
2022-07-28T13:09:48.011Z,8.57
2022-07-28T13:12:22.288Z,8.18
2022-07-28T13:14:52.790Z,8.05
2022-07-28T13:17:24.273Z,8.75
2022-07-28T13:20:04.150Z,11.18
2022-07-28T13:22:33.916Z,8.38
2022-07-28T13:25:02.319Z,8.27
2022-07-28T13:27:33.755Z,7.93
2022-07-28T13:30:02.498Z,8.07
2022-07-28T13:32:34.194Z,7.30
2022-07-28T13:35:03.782Z,7.97
2022-07-28T13:37:32.893Z,7.40
2022-07-28T13:40:01.752Z,8.38
2022-07-28T13:42:32.801Z,8.48
2022-07-28T13:45:01.614Z,8.30
2022-07-28T13:47:38.732Z,9.32
2022-07-28T13:50:09.879Z,8.52
2022-07-28T13:52:39.931Z,7.55
2022-07-28T13:55:10.347Z,8.80
2022-07-28T13:57:43.083Z,8.00
2022-07-28T14:00:12.803Z,8.00
2022-07-28T14:02:44.061Z,8.20
2022-07-28T14:05:14.461Z,10.27
2022-07-28T14:07:49.001Z,9.13
2022-07-28T14:10:18.109Z,7.63
2022-07-28T14:12:46.944Z,8.20
2022-07-28T14:15:15.754Z,8.35
2022-07-28T14:17:46.487Z,7.82
2022-07-28T14:20:16.333Z,8.25
2022-07-28T14:22:46.313Z,7.53
2022-07-28T14:25:20.983Z,8.75
2022-07-28T14:27:51.534Z,8.05
2022-07-28T14:30:21.046Z,8.00
2022-07-28T14:32:51.281Z,8.77
2022-07-28T14:40:39.737Z,8.23
2022-07-28T14:43:09.270Z,8.23
2022-07-28T14:45:51.374Z,8.23
2022-07-28T14:48:30.848Z,15.35
2022-07-28T14:51:01.260Z,7.50
2022-07-28T14:55:57.965Z,8.73
2022-07-28T14:58:26.917Z,11.15
2022-07-28T15:00:55.944Z,8.75
2022-07-28T15:03:26.864Z,11.80
2022-07-28T15:05:58.177Z,10.13
2022-07-28T15:08:29.023Z,12.32
2022-07-28T15:10:58.786Z,9.32
2022-07-28T15:13:27.959Z,9.60
2022-07-28T15:18:29.041Z,14.30
2022-07-28T15:20:59.061Z,8.13
2022-07-28T15:23:27.670Z,8.10
2022-07-28T15:25:56.295Z,8.88
2022-07-28T15:28:24.965Z,8.20
2022-07-28T15:30:53.785Z,7.43
2022-07-28T15:33:22.510Z,8.15
2022-07-28T15:35:58.485Z,8.93
2022-07-28T15:38:31.766Z,8.35
2022-07-28T15:41:00.675Z,8.18
2022-07-28T15:43:29.805Z,8.18
2022-07-28T15:45:58.701Z,9.05
2022-07-28T15:48:27.544Z,6.93
2022-07-28T15:50:55.861Z,7.75
2022-07-28T15:53:24.570Z,7.75
2022-07-28T15:55:54.787Z,7.80
2022-07-28T15:58:25.851Z,7.68
2022-07-28T16:00:54.813Z,8.10
2022-07-28T16:03:23.961Z,8.68
2022-07-28T16:05:52.548Z,7.53
2022-07-28T16:08:23.067Z,8.52
2022-07-28T16:10:54.920Z,9.25
2022-07-28T16:13:36.409Z,8.02
2022-07-28T16:16:08.400Z,7.35
2022-07-28T16:18:38.834Z,8.55
2022-07-28T16:21:09.021Z,7.68
2022-07-28T16:26:09.207Z,7.38
2022-07-28T16:28:37.854Z,8.05
2022-07-28T16:31:06.567Z,7.57
2022-07-28T16:33:35.605Z,8.52
2022-07-28T16:36:04.353Z,7.75
2022-07-28T16:38:33.481Z,9.98
2022-07-28T16:41:01.867Z,8.10
2022-07-28T16:43:32.215Z,7.75
2022-07-28T16:46:02.612Z,8.07
2022-07-28T16:48:31.840Z,7.55
2022-07-28T16:51:00.300Z,8.98
2022-07-28T16:53:28.924Z,8.02
2022-07-28T16:55:57.743Z,7.20
2022-07-28T16:58:26.133Z,10.55
2022-07-28T17:00:56.110Z,7.47
2022-07-28T17:03:27.700Z,7.25
2022-07-28T17:05:56.616Z,7.38
2022-07-28T17:08:25.120Z,7.90
2022-07-28T17:10:53.591Z,8.82
2022-07-28T17:13:25.589Z,6.60
2022-07-28T17:15:55.626Z,7.40
2022-07-28T17:18:24.017Z,9.30
2022-07-28T17:20:52.820Z,7.60
2022-07-28T17:23:21.154Z,8.05
2022-07-28T17:26:34.750Z,11.27
2022-07-28T17:28:41.518Z,8.23
2022-07-28T17:31:11.634Z,7.97
2022-07-28T17:33:41.151Z,7.40
2022-07-28T17:36:09.769Z,7.50
2022-07-28T17:38:38.651Z,7.55
2022-07-28T17:41:09.166Z,8.23
2022-07-28T17:43:42.301Z,7.97
2022-07-28T17:46:15.476Z,7.18
2022-07-28T17:48:44.580Z,7.50
2022-07-28T17:51:13.721Z,10.05
2022-07-28T17:53:45.753Z,7.77
2022-07-28T17:56:14.758Z,9.88
2022-07-28T17:58:43.139Z,11.27
2022-07-28T18:01:13.714Z,15.68
2022-07-28T18:03:56.644Z,10.38
2022-07-28T18:06:32.140Z,10.05
2022-07-28T18:09:04.810Z,13.48
2022-07-28T18:11:55.245Z,11.55
2022-07-28T18:14:25.261Z,9.00
2022-07-28T18:16:53.584Z,9.38
2022-07-28T18:19:23.321Z,8.50
2022-07-28T18:21:51.862Z,12.10
2022-07-28T18:24:22.216Z,11.32
2022-07-28T18:26:51.903Z,10.35
2022-07-28T18:29:23.207Z,24.73
2022-07-28T18:31:52.678Z,21.05
2022-07-28T18:34:24.686Z,19.97
2022-07-28T18:36:54.223Z,16.58
2022-07-28T18:39:22.743Z,24.52
2022-07-28T18:41:51.261Z,29.27
2022-07-28T18:44:20.640Z,28.10
2022-07-28T18:46:50.550Z,21.55
2022-07-28T18:49:20.135Z,34.20
2022-07-28T18:51:50.631Z,14.25
2022-07-28T18:54:27.428Z,25.55
2022-07-28T18:56:57.510Z,30.23
2022-07-28T18:59:28.347Z,20.30
2022-07-28T19:01:58.018Z,15.23
2022-07-28T19:04:27.236Z,9.98
2022-07-28T19:06:57.572Z,8.75
2022-07-28T19:09:36.904Z,8.32
2022-07-28T19:12:08.719Z,8.63
2022-07-28T19:14:38.768Z,11.57
2022-07-28T19:17:08.858Z,12.32
2022-07-28T19:19:37.709Z,32.38
2022-07-28T19:22:08.511Z,53.33
2022-07-28T19:24:37.379Z,36.30
2022-07-28T19:27:07.168Z,12.82
2022-07-28T19:29:36.416Z,13.50
2022-07-28T19:32:06.471Z,14.00
2022-07-28T19:37:06.837Z,8.25
2022-07-28T19:39:37.218Z,9.00
2022-07-28T19:44:39.298Z,9.68
2022-07-28T19:47:08.667Z,13.93
2022-07-28T19:49:39.543Z,9.70
2022-07-28T19:52:09.732Z,8.57
2022-07-28T19:54:38.213Z,13.70
2022-07-28T19:57:12.398Z,13.15
2022-07-28T19:59:43.155Z,11.93
2022-07-28T20:02:11.864Z,10.82
2022-07-28T20:04:40.381Z,13.68
2022-07-28T20:07:10.188Z,10.35
2022-07-28T20:09:39.792Z,8.95
2022-07-28T20:12:08.801Z,9.82
2022-07-28T20:17:07.184Z,9.35
2022-07-28T20:19:35.550Z,9.48
2022-07-28T20:22:04.333Z,9.40
2022-07-28T20:24:34.093Z,8.63
2022-07-28T20:27:03.990Z,8.57
2022-07-28T20:29:32.369Z,10.02
2022-07-28T20:32:00.851Z,8.02
2022-07-28T20:34:29.649Z,10.60
2022-07-28T20:36:58.212Z,9.20
2022-07-28T20:39:44.534Z,7.82
2022-07-28T20:42:15.389Z,11.32
2022-07-28T20:44:43.883Z,8.30
2022-07-28T20:47:12.729Z,10.60
2022-07-28T20:49:43.435Z,8.43
2022-07-28T20:52:11.774Z,11.20
2022-07-28T20:54:40.152Z,9.63
2022-07-28T20:57:08.581Z,11.13
2022-07-28T20:59:38.237Z,8.90
2022-07-28T21:02:07.000Z,10.05
2022-07-28T21:04:35.306Z,9.05
2022-07-28T21:07:04.121Z,8.80
2022-07-28T21:09:33.780Z,8.98
2022-07-28T21:12:02.137Z,10.85
2022-07-28T21:14:32.257Z,8.73
2022-07-28T21:17:02.213Z,10.25
2022-07-28T21:19:30.664Z,8.25
2022-07-28T21:21:59.058Z,7.47
2022-07-28T21:24:27.796Z,8.85
2022-07-28T21:26:56.394Z,8.02
2022-07-28T21:32:04.153Z,7.53
2022-07-28T21:34:37.001Z,7.95
2022-07-28T21:37:06.946Z,7.32
2022-07-28T21:39:36.625Z,7.32
2022-07-28T21:42:08.598Z,7.35
2022-07-28T21:44:38.400Z,7.53
2022-07-28T21:47:07.043Z,7.07
2022-07-28T21:49:38.181Z,6.60
2022-07-28T21:52:06.806Z,6.88
2022-07-28T21:54:35.582Z,7.57
2022-07-28T21:57:20.899Z,7.30
2022-07-28T21:59:54.240Z,7.40
2022-07-28T22:02:24.182Z,7.00
2022-07-28T22:04:55.238Z,7.05
2022-07-28T22:07:23.866Z,6.20
2022-07-28T22:09:52.276Z,6.85
2022-07-28T22:12:21.016Z,6.90
2022-07-28T22:14:49.396Z,6.22
2022-07-28T22:17:19.023Z,6.85
2022-07-28T22:19:47.553Z,6.30
2022-07-28T22:22:18.496Z,6.72
2022-07-28T22:24:47.166Z,5.97
2022-07-28T22:27:15.901Z,6.95
2022-07-28T22:29:49.977Z,8.15
2022-07-28T22:32:28.574Z,6.07
2022-07-28T22:34:58.554Z,6.38
2022-07-28T22:37:28.871Z,5.93
2022-07-28T22:39:57.170Z,7.38
2022-07-28T22:42:26.307Z,5.45
2022-07-28T22:44:55.025Z,6.50
2022-07-28T22:47:24.045Z,6.05
2022-07-28T22:49:53.785Z,7.72
2022-07-28T22:52:26.076Z,6.10
2022-07-28T22:54:56.814Z,5.80
2022-07-28T22:57:26.796Z,5.28
2022-07-28T22:59:55.717Z,5.43
2022-07-28T23:02:26.136Z,5.22
2022-07-28T23:04:55.431Z,4.97
2022-07-28T23:07:51.023Z,5.43
2022-07-28T23:10:14.258Z,5.32
2022-07-28T23:12:42.661Z,5.57
2022-07-28T23:15:11.373Z,5.13
2022-07-28T23:17:40.021Z,6.07
2022-07-28T23:20:09.104Z,7.65
2022-07-28T23:22:37.944Z,6.65
2022-07-28T23:25:07.196Z,5.70
2022-07-28T23:27:37.112Z,5.32
2022-07-28T23:30:06.457Z,6.22
2022-07-28T23:32:35.164Z,5.97
2022-07-28T23:35:03.582Z,5.68
2022-07-28T23:37:35.320Z,5.25
2022-07-28T23:40:04.999Z,5.00
2022-07-28T23:42:33.402Z,6.45
2022-07-28T23:45:03.723Z,5.20
2022-07-28T23:47:34.308Z,4.88
2022-07-28T23:50:03.738Z,5.25
2022-07-28T23:52:32.243Z,5.40
2022-07-28T23:55:00.891Z,5.40
2022-07-28T23:57:30.926Z,5.38
2022-07-28T23:59:59.708Z,5.00
